Omaha, NE

5:14 PM CDT on September 20, 2014 (GMT -0500)
CarterLake.org | Change Station
CLOSE
Current Station
Personal Weather Station
Location: Carter Lake, IA
Elevation: 980 ft
Nearby Weather Stations

Elev 980 ft 41.29 °N, 95.92 °W | Updated 8 seconds ago

Clear
Clear
82.4 °F
Feels Like 82 °F
N
0.0
Wind Variable Wind from West
Gusts 0.0 mph

Today
High -- | Low -- °F
--% Chance of Precip.
Yesterday
High -- | Low -- °F
Precip. -- in
7:09 AM 7:24 PM
Waning Crescent, 10% visible
Pressure 29.89 in
Visibility 10.0 miles
Clouds Few 3500 ft
Scattered Clouds 25000 ft
Heat Index 82 °F
Dew Point 56 °F
Humidity 41%
Rainfall 0.49 in
Snow Depth Not available.
UV 2 out of 12
Pollen 6.30 out of 12
Ozone Good
PM2.5 Good
Flu Activity Not available.
METAR KOMA 202152Z 32009KT 10SM FEW035 SCT250 29/14 A2991 RMK AO2 SLP121 T02890139

More Conditions Fewer Conditions

Pressure 29.89 in
Visibility 10.0 miles
Clouds Few 3500 ft
Scattered Clouds 25000 ft
Heat Index 82 °F
Dew Point 56 °F
Humidity 41%
Rainfall 0.49 in
Snow Depth Not available.
UV 2 out of 12
Pollen 6.30 out of 12
Ozone Good
PM2.5 Good
Flu Activity Not available.
METAR KOMA 202152Z 32009KT 10SM FEW035 SCT250 29/14 A2991 RMK AO2 SLP121 T02890139

More Conditions Fewer Conditions

10-Day Weather Forecast

Almanac

Astronomy

Sep. 20, 2014 Rise Set
Actual Time 7:09 AM CDT 7:24 PM CDT
Civil Twilight 6:41 AM CDT 7:51 PM CDT
Nautical Twilight 6:09 AM CDT 8:24 PM CDT
Astronomical Twilight 5:36 AM CDT 8:57 PM CDT
Moon 3:47 AM CDT 5:29 PM CDT
Length of Visible Light 13h 10m
Length of Day
12h 15m
Tomorrow will be 2m 44s shorter.
Waning Crescent, 10% of the Moon is Illuminated
Today
Waning Crescent
Sep 24
New
Oct 1
First Quarter
Oct 8
Full
Oct 15
Last Quarter

Today's Extremes

State Highs State Lows

Community

WunderPhotos

Upload Photos

1,754,968 photos uploaded!

WunderBlogs® & News

Nearby

Air Quality

  Air Quality AQ Index Pollutant
Yesterday Moderate
PM2.5
Yesterday Good
OZONE
Current Good
PM2.5
Current Good
OZONE
Saturday Good
PM2.5
Saturday Good
OZONE
Saturday Good
CO
Sunday Good
PM2.5
Sunday Good
OZONE
Sunday Good
CO

Snow Depth

Station Depth Elevation
No new snow has been reported.

Earthquake Activity

City Distance Mag. Time & Date
No recent earthquake activity has been reported nearby.
Minimum magnitude displayed is 2.5.

Coastal Water Temperatures

Place Temperature
No Stations Reporting

Nearby Weather Stations